Time;durP1;ratioP1;P1;durP2;ratioP2;P2;SDS_P1;SDS_P2;PMS_P1;PMS_P2;Temp;Humidity;BMP_temperature;BMP_pressure;BME280_temperature;BME280_humidity;BME280_pressure;Samples;Min_cycle;Max_cycle;Signal;HPM_P1;HPM_P2
2021/12/22 00:00:05;;;;;;;;;;;;;;;-1.55;95.27;100984.46;1685313;83;21138;-82
2021/12/22 00:02:34;;;;;;;;;;;;;;;-1.50;95.31;100991.14;1666846;83;20203;-83
2021/12/22 00:05:03;;;;;;;;;;;;;;;-1.39;94.90;100992.48;1678283;83;21090;-81
2021/12/22 00:07:30;;;;;;;;;;;;;;;-1.38;94.56;100994.16;1679483;83;20187;-80
2021/12/22 00:10:00;;;;;;;;;;;;;;;-1.41;94.29;100989.09;1687397;83;20556;-80
2021/12/22 00:12:27;;;;;;;;;;;;;;;-1.37;93.94;100995.85;1684200;83;20168;-79
2021/12/22 00:14:55;;;;;;;;;;;;;;;-1.37;93.98;100994.55;1690850;83;20201;-79
2021/12/22 00:17:20;;;;;;;;;;;;;;;-1.44;94.05;100996.55;1679857;83;20292;-80
2021/12/22 00:19:46;;;;;;;;;;;;;;;-1.37;93.63;100998.44;1688266;83;20171;-80
2021/12/22 00:22:13;;;;;;;;;;;;;;;-1.29;93.67;101008.05;1704484;83;20350;-80
2021/12/22 00:24:40;;;;;;;;;;;;;;;-1.15;93.39;101007.09;1689784;83;20516;-81
2021/12/22 00:27:08;;;;;;;;;;;;;;;-1.15;92.73;101007.09;1659664;83;20196;-79
2021/12/22 00:29:35;;;;;;;;;;;;;;;-1.04;92.74;101007.10;1683169;83;20164;-79
2021/12/22 00:32:12;;;;;;;;;;;;;;;-1.00;92.13;101015.16;1684599;83;20177;-79
2021/12/22 00:34:47;;;;;;;;;;;;;;;-0.95;91.64;101011.49;1680846;83;20139;-81
2021/12/22 00:37:13;;;;;;;;;;;;;;;-0.97;90.83;101016.33;1692372;83;20196;-81
2021/12/22 00:39:43;;;;;;;;;;;;;;;-0.93;91.16;101011.43;1697907;83;20306;-81
2021/12/22 00:42:09;;;;;;;;;;;;;;;-1.04;90.59;101013.58;1698160;83;20141;-79
2021/12/22 00:44:36;;;;;;;;;;;;;;;-1.03;90.73;101015.28;1684270;83;20327;-81
2021/12/22 00:47:02;;;;;;;;;;;;;;;-1.14;91.19;101013.94;1686589;83;20149;-81
2021/12/22 00:49:28;;;;;;;;;;;;;;;-1.16;91.19;101021.41;1687768;83;20488;-79
2021/12/22 00:51:53;;;;;;;;;;;;;;;-1.11;91.51;101009.93;1689818;83;20601;-79
2021/12/22 00:54:19;;;;;;;;;;;;;;;-1.21;91.56;101025.47;1684858;83;21149;-80
2021/12/22 00:56:46;;;;;;;;;;;;;;;-1.25;91.51;101023.88;1696773;83;20132;-81
2021/12/22 00:59:11;;;;;;;;;;;;;;;-1.37;91.59;101021.30;1681020;83;20212;-80
2021/12/22 01:01:38;;;;;;;;;;;;;;;-1.19;91.39;101028.84;1691169;83;20223;-81
2021/12/22 01:04:04;;;;;;;;;;;;;;;-1.19;90.43;101026.24;1689543;83;20244;-80
2021/12/22 01:06:31;;;;;;;;;;;;;;;-1.46;90.55;101021.64;1696319;83;21082;-80
2021/12/22 01:08:58;;;;;;;;;;;;;;;-1.43;90.27;101016.34;1675317;83;20176;-78
2021/12/22 01:11:26;;;;;;;;;;;;;;;-1.59;90.63;101023.85;1696912;83;21078;-80
2021/12/22 01:13:52;;;;;;;;;;;;;;;-1.55;90.59;101025.44;1674857;83;20129;-80
2021/12/22 01:16:18;;;;;;;;;;;;;;;-1.51;90.82;101020.98;1690322;83;20160;-80
2021/12/22 01:18:46;;;;;;;;;;;;;;;-1.49;90.68;101025.64;1691899;83;21063;-80
2021/12/22 01:26:25;;;;;;;;;;;;;;;-1.61;91.09;101017.90;1690066;83;20497;-78
2021/12/22 01:28:51;;;;;;;;;;;;;;;-1.66;91.22;101023.24;1686612;83;20675;-78
2021/12/22 01:31:17;;;;;;;;;;;;;;;-1.68;91.24;101023.77;1689495;83;21033;-81
2021/12/22 01:33:43;;;;;;;;;;;;;;;-1.65;91.06;101021.48;1709499;83;20179;-80
2021/12/22 01:36:08;;;;;;;;;;;;;;;-1.71;91.34;101019.98;1696347;83;20709;-79
2021/12/22 01:38:34;;;;;;;;;;;;;;;-1.73;91.45;101020.94;1697732;83;20148;-79
2021/12/22 01:40:59;;;;;;;;;;;;;;;-1.68;91.61;101026.78;1703982;83;21265;-79
2021/12/22 01:43:25;;;;;;;;;;;;;;;-1.71;91.54;101025.59;1703256;83;21848;-80
2021/12/22 01:45:56;;;;;;;;;;;;;;;-1.64;91.59;101029.66;1689649;83;20159;-80
2021/12/22 01:51:07;;;;;;;;;;;;;;;-1.69;91.98;101041.95;1701450;83;20183;-79
2021/12/22 01:53:46;;;;;;;;;;;;;;;-1.68;91.73;101034.13;1691462;83;20259;-80
2021/12/22 01:56:26;;;;;;;;;;;;;;;-1.67;91.31;101031.07;1703330;83;21164;-79
2021/12/22 01:58:56;;;;;;;;;;;;;;;-1.59;91.04;101038.09;1691382;83;20201;-80
2021/12/22 02:01:22;;;;;;;;;;;;;;;-1.66;90.86;101037.48;1694345;83;20231;-78
2021/12/22 02:03:49;;;;;;;;;;;;;;;-1.58;90.74;101041.09;1689425;83;20172;-79
2021/12/22 02:06:15;;;;;;;;;;;;;;;-1.59;90.65;101046.33;1698079;83;20182;-79
2021/12/22 02:08:40;;;;;;;;;;;;;;;-1.39;90.71;101041.70;1703496;83;20554;-80
2021/12/22 02:11:06;;;;;;;;;;;;;;;-1.33;90.08;101041.48;1697771;83;20257;-80
2021/12/22 02:13:37;;;;;;;;;;;;;;;-1.26;89.61;101045.51;1702861;83;20322;-80
2021/12/22 02:16:08;;;;;;;;;;;;;;;-1.44;89.47;101045.77;1690566;83;20135;-80
2021/12/22 02:18:41;;;;;;;;;;;;;;;-1.28;89.51;101048.62;1696941;83;20207;-80
2021/12/22 02:21:07;;;;;;;;;;;;;;;-1.20;88.55;101040.09;1685973;83;21306;-80
2021/12/22 02:23:33;;;;;;;;;;;;;;;-1.36;88.77;101049.37;1698437;83;20194;-80
2021/12/22 02:26:06;;;;;;;;;;;;;;;-1.30;88.60;101050.44;1687963;83;20290;-80
2021/12/22 02:28:30;;;;;;;;;;;;;;;-1.52;89.26;101052.52;1689684;83;20194;-79
2021/12/22 02:30:54;;;;;;;;;;;;;;;-1.47;89.15;101049.30;1686048;83;20129;-80
2021/12/22 02:33:22;;;;;;;;;;;;;;;-1.34;88.59;101050.14;1690517;83;22042;-80
2021/12/22 02:36:09;;;;;;;;;;;;;;;-1.20;88.28;101050.45;1681205;83;20187;-78
2021/12/22 02:38:35;;;;;;;;;;;;;;;-1.26;88.00;101050.69;1675093;83;20156;-79
2021/12/22 02:41:01;;;;;;;;;;;;;;;-1.05;87.71;101052.09;1682194;83;20213;-80
2021/12/22 02:43:32;;;;;;;;;;;;;;;-1.32;87.33;101059.56;1692714;83;20510;-79
2021/12/22 02:45:58;;;;;;;;;;;;;;;-1.21;87.45;101052.67;1695188;83;20149;-80
2021/12/22 02:48:29;;;;;;;;;;;;;;;-1.25;87.53;101048.50;1696837;83;20438;-80
2021/12/22 02:50:57;;;;;;;;;;;;;;;-1.13;87.45;101054.52;1695871;83;21017;-79
2021/12/22 02:53:29;;;;;;;;;;;;;;;-1.30;87.27;101049.14;1684362;83;20153;-78
2021/12/22 02:56:04;;;;;;;;;;;;;;;-1.31;87.92;101048.27;1686093;83;20217;-79
2021/12/22 02:58:39;;;;;;;;;;;;;;;-1.34;87.89;101047.55;1701902;83;20115;-79
2021/12/22 03:01:23;;;;;;;;;;;;;;;-1.31;88.08;101049.57;1692547;83;20159;-79
2021/12/22 03:03:57;;;;;;;;;;;;;;;-1.30;88.05;101047.84;1686948;83;20125;-79
2021/12/22 03:06:20;;;;;;;;;;;;;;;-1.21;88.00;101051.38;1692116;83;20129;-79
2021/12/22 03:08:41;;;;;;;;;;;;;;;-1.28;87.88;101044.27;1693526;83;20790;-79
2021/12/22 03:11:07;;;;;;;;;;;;;;;-1.32;87.94;101047.03;1686080;83;21123;-80
2021/12/22 03:13:32;;;;;;;;;;;;;;;-1.43;88.37;101045.30;1683094;83;20156;-78
2021/12/22 03:15:58;;;;;;;;;;;;;;;-1.50;88.59;101052.01;1689825;83;20159;-80
2021/12/22 03:18:24;;;;;;;;;;;;;;;-1.57;88.91;101049.27;1695754;83;20671;-79
2021/12/22 03:20:58;;;;;;;;;;;;;;;-1.56;89.56;101057.87;1693134;83;20259;-78
2021/12/22 03:23:17;;;;;;;;;;;;;;;-1.54;89.44;101059.52;1693821;83;20105;-80
2021/12/22 03:25:42;;;;;;;;;;;;;;;-1.55;89.70;101060.87;1700949;83;20164;-78
2021/12/22 03:28:08;;;;;;;;;;;;;;;-1.65;90.18;101065.52;1688150;83;20176;-77
2021/12/22 03:30:33;;;;;;;;;;;;;;;-1.59;90.32;101069.64;1702966;83;20541;-81
2021/12/22 03:32:59;;;;;;;;;;;;;;;-1.60;89.94;101058.45;1703851;83;20145;-79
2021/12/22 03:35:25;;;;;;;;;;;;;;;-1.70;90.44;101064.38;1696872;83;20997;-80
2021/12/22 03:37:56;;;;;;;;;;;;;;;-1.71;90.78;101067.03;1699991;83;20758;-79
2021/12/22 03:40:22;;;;;;;;;;;;;;;-1.75;91.14;101071.94;1693823;83;20190;-78
2021/12/22 03:42:48;;;;;;;;;;;;;;;-1.77;91.26;101074.59;1691381;83;20117;-78
2021/12/22 03:45:14;;;;;;;;;;;;;;;-1.81;91.78;101076.41;1683284;83;21227;-82
2021/12/22 03:47:40;;;;;;;;;;;;;;;-1.78;91.93;101074.64;1695615;83;21980;-80
2021/12/22 03:50:08;;;;;;;;;;;;;;;-1.70;91.52;101073.91;1697152;83;20203;-78
2021/12/22 03:52:33;;;;;;;;;;;;;;;-1.66;91.25;101075.50;1701961;83;20192;-79
2021/12/22 03:54:59;;;;;;;;;;;;;;;-1.87;91.51;101081.80;1697186;83;20730;-80
2021/12/22 03:57:25;;;;;;;;;;;;;;;-1.71;91.69;101079.98;1697412;83;20156;-80
2021/12/22 03:59:51;;;;;;;;;;;;;;;-1.64;90.83;101075.82;1703848;83;21159;-82
2021/12/22 04:02:19;;;;;;;;;;;;;;;-1.50;90.65;101086.98;1702508;83;20137;-80
2021/12/22 04:04:46;;;;;;;;;;;;;;;-1.56;90.32;101083.31;1697675;83;20152;-78
2021/12/22 04:07:12;;;;;;;;;;;;;;;-1.51;90.31;101089.20;1695733;83;20200;-78
2021/12/22 04:09:37;;;;;;;;;;;;;;;-1.43;89.81;101089.34;1697780;83;20164;-80
2021/12/22 04:12:03;;;;;;;;;;;;;;;-1.79;90.26;101094.95;1694461;83;21094;-78
2021/12/22 04:14:29;;;;;;;;;;;;;;;-1.81;90.29;101093.70;1696208;83;20164;-78
2021/12/22 04:16:54;;;;;;;;;;;;;;;-1.87;90.29;101098.63;1690015;83;20211;-78
2021/12/22 04:19:20;;;;;;;;;;;;;;;-1.95;90.60;101091.59;1693401;83;20171;-81
2021/12/22 04:21:48;;;;;;;;;;;;;;;-1.92;90.86;101094.53;1695872;83;20167;-78
2021/12/22 04:24:13;;;;;;;;;;;;;;;-2.08;91.21;101099.36;1701330;83;20475;-78
2021/12/22 04:26:39;;;;;;;;;;;;;;;-2.07;91.22;101098.48;1686154;83;20153;-78
2021/12/22 04:29:05;;;;;;;;;;;;;;;-2.10;91.64;101099.88;1704701;83;20272;-81
2021/12/22 04:31:30;;;;;;;;;;;;;;;-1.99;90.90;101099.05;1701960;83;21246;-78
2021/12/22 04:33:56;;;;;;;;;;;;;;;-2.20;91.56;101096.30;1683846;83;20158;-79
2021/12/22 04:36:22;;;;;;;;;;;;;;;-2.07;91.71;101093.30;1690720;83;21108;-79
2021/12/22 04:38:47;;;;;;;;;;;;;;;-2.12;91.48;101100.38;1687499;83;20831;-79
2021/12/22 04:41:13;;;;;;;;;;;;;;;-2.26;91.38;101104.27;1695058;83;20134;-78
2021/12/22 04:43:38;;;;;;;;;;;;;;;-2.19;91.20;101100.59;1681877;83;20173;-78
2021/12/22 04:46:04;;;;;;;;;;;;;;;-2.24;91.21;101106.80;1687226;83;20208;-79
2021/12/22 04:48:31;;;;;;;;;;;;;;;-2.36;91.90;101098.55;1690669;83;21182;-79
2021/12/22 04:50:57;;;;;;;;;;;;;;;-2.33;92.49;101098.91;1692269;83;20640;-79
2021/12/22 04:53:26;;;;;;;;;;;;;;;-2.38;92.92;101087.42;1687891;83;20188;-79
2021/12/22 04:55:50;;;;;;;;;;;;;;;-2.26;93.12;101090.03;1697219;83;20129;-80
2021/12/22 04:58:15;;;;;;;;;;;;;;;-2.37;93.62;101094.72;1694554;83;20172;-79
2021/12/22 05:00:41;;;;;;;;;;;;;;;-2.31;93.23;101100.16;1694999;83;20993;-79
2021/12/22 05:03:07;;;;;;;;;;;;;;;-2.41;93.56;101091.83;1686781;83;20509;-78
2021/12/22 05:05:32;;;;;;;;;;;;;;;-2.37;93.28;101092.13;1702074;82;20299;-80
2021/12/22 05:07:58;;;;;;;;;;;;;;;-2.40;93.53;101091.77;1701606;83;20143;-80
2021/12/22 05:10:24;;;;;;;;;;;;;;;-2.51;93.71;101093.03;1703841;83;20345;-79
2021/12/22 05:12:51;;;;;;;;;;;;;;;-2.56;93.90;101099.19;1689906;83;21104;-80
2021/12/22 05:15:19;;;;;;;;;;;;;;;-2.60;93.89;101094.16;1693555;83;20200;-79
2021/12/22 05:20:13;;;;;;;;;;;;;;;-2.51;94.46;101100.80;1701757;83;20172;-80
2021/12/22 05:22:38;;;;;;;;;;;;;;;-2.48;94.10;101094.23;1690822;83;20224;-80
2021/12/22 05:25:05;;;;;;;;;;;;;;;-2.66;94.51;101107.28;1696266;83;21178;-79
2021/12/22 05:27:30;;;;;;;;;;;;;;;-2.51;93.86;101093.03;1699430;83;20176;-80
2021/12/22 05:29:56;;;;;;;;;;;;;;;-2.44;93.77;101094.52;1683907;83;20180;-79
2021/12/22 05:32:26;;;;;;;;;;;;;;;-2.36;93.66;101088.20;1687044;83;20544;-80
2021/12/22 05:34:49;;;;;;;;;;;;;;;-2.48;93.63;101094.23;1700312;83;20160;-79
2021/12/22 05:37:15;;;;;;;;;;;;;;;-2.46;93.73;101095.85;1697170;83;21979;-80
2021/12/22 05:39:40;;;;;;;;;;;;;;;-2.48;93.91;101101.99;1698581;83;20147;-81
2021/12/22 05:42:06;;;;;;;;;;;;;;;-2.55;93.91;101113.83;1684577;83;20167;-79
2021/12/22 05:44:32;;;;;;;;;;;;;;;-2.58;94.49;101120.38;1692252;83;20200;-79
2021/12/22 05:46:57;;;;;;;;;;;;;;;-2.46;94.44;101119.59;1693491;83;20144;-80
2021/12/22 05:49:23;;;;;;;;;;;;;;;-2.40;93.86;101121.98;1681103;83;21837;-79
2021/12/22 05:51:49;;;;;;;;;;;;;;;-2.41;93.65;101132.78;1691160;83;20144;-79
2021/12/22 05:54:14;;;;;;;;;;;;;;;-2.41;94.01;101125.02;1692006;83;20136;-79
2021/12/22 05:56:40;;;;;;;;;;;;;;;-2.38;93.73;101124.06;1690930;83;20495;-80
2021/12/22 05:59:05;;;;;;;;;;;;;;;-2.49;94.00;101140.38;1688723;83;20147;-79
2021/12/22 06:01:31;;;;;;;;;;;;;;;-2.49;94.29;101140.38;1690087;83;21860;-80
2021/12/22 06:03:59;;;;;;;;;;;;;;;-2.42;94.17;101143.17;1686499;83;20253;-79
2021/12/22 06:06:26;;;;;;;;;;;;;;;-2.22;93.67;101152.44;1683416;83;20165;-77
2021/12/22 06:08:51;;;;;;;;;;;;;;;-2.27;93.33;101153.04;1696238;83;20240;-78
2021/12/22 06:11:17;;;;;;;;;;;;;;;-2.20;93.29;101158.39;1693288;83;20292;-78
2021/12/22 06:13:43;;;;;;;;;;;;;;;-2.14;93.08;101162.53;1689461;83;21187;-77
2021/12/22 06:16:09;;;;;;;;;;;;;;;-2.07;93.13;101173.53;1681299;83;20191;-77
2021/12/22 06:18:41;;;;;;;;;;;;;;;-2.09;92.80;101175.33;1677377;83;20478;-80
2021/12/22 06:21:02;;;;;;;;;;;;;;;-2.03;92.65;101180.31;1685301;83;20168;-76
2021/12/22 06:23:27;;;;;;;;;;;;;;;-1.85;92.10;101183.59;1688164;83;20156;-77
2021/12/22 06:25:53;;;;;;;;;;;;;;;-2.00;92.59;101186.22;1698812;83;21146;-78
2021/12/22 06:28:19;;;;;;;;;;;;;;;-2.04;92.67;101198.84;1688636;83;20259;-77
2021/12/22 06:30:44;;;;;;;;;;;;;;;-1.98;92.45;101188.76;1687809;83;20215;-78
2021/12/22 06:33:10;;;;;;;;;;;;;;;-1.97;92.39;101197.36;1682435;83;20159;-77
2021/12/22 06:35:35;;;;;;;;;;;;;;;-1.85;91.90;101195.66;1684974;83;20669;-77
2021/12/22 06:38:01;;;;;;;;;;;;;;;-1.97;92.05;101204.70;1684444;83;22375;-81
2021/12/22 06:40:27;;;;;;;;;;;;;;;-1.92;92.15;101212.31;1697154;83;20217;-78
2021/12/22 06:42:52;;;;;;;;;;;;;;;-1.86;91.97;101207.77;1687642;83;20235;-77
2021/12/22 06:45:18;;;;;;;;;;;;;;;-1.91;92.31;101213.56;1691387;83;20136;-80
2021/12/22 06:47:43;;;;;;;;;;;;;;;-1.92;91.92;101194.19;1681776;83;20140;-79
2021/12/22 06:50:09;;;;;;;;;;;;;;;-1.87;91.98;101206.07;1683427;83;21158;-78
2021/12/22 06:52:35;;;;;;;;;;;;;;;-1.92;92.09;101222.20;1686032;83;20184;-77
2021/12/22 06:55:00;;;;;;;;;;;;;;;-1.96;92.39;101219.31;1691492;83;20168;-78
2021/12/22 06:57:29;;;;;;;;;;;;;;;-1.93;92.57;101214.03;1683076;83;20152;-79
2021/12/22 06:59:56;;;;;;;;;;;;;;;-1.84;92.40;101213.73;1684502;83;20541;-77
2021/12/22 07:02:24;;;;;;;;;;;;;;;-1.78;92.60;101214.45;1680987;83;20416;-78
2021/12/22 07:04:49;;;;;;;;;;;;;;;-1.76;92.38;101216.07;1684608;83;20125;-78
2021/12/22 07:07:14;;;;;;;;;;;;;;;-1.67;91.74;101207.16;1675829;83;20143;-77
2021/12/22 07:09:40;;;;;;;;;;;;;;;-1.65;91.30;101210.53;1682022;83;20480;-78
2021/12/22 07:12:06;;;;;;;;;;;;;;;-1.69;91.56;101212.86;1677675;83;20176;-80
2021/12/22 07:14:32;;;;;;;;;;;;;;;-1.62;91.69;101229.86;1660182;83;22030;-78
2021/12/22 07:16:58;;;;;;;;;;;;;;;-1.58;91.59;101221.09;1683484;83;20740;-77
2021/12/22 07:19:25;;;;;;;;;;;;;;;-1.64;91.91;101217.42;1684851;83;20174;-78
2021/12/22 07:21:54;;;;;;;;;;;;;;;-1.57;91.53;101224.09;1684116;83;20183;-81
2021/12/22 07:24:22;;;;;;;;;;;;;;;-1.63;91.98;101223.01;1665213;83;20178;-78
2021/12/22 07:26:50;;;;;;;;;;;;;;;-1.59;91.78;101227.16;1685413;83;22425;-77
2021/12/22 07:29:17;;;;;;;;;;;;;;;-1.71;92.02;101214.62;1679879;83;20206;-78
2021/12/22 07:31:42;;;;;;;;;;;;;;;-1.70;92.29;101225.39;1690736;83;20155;-78
2021/12/22 07:34:16;;;;;;;;;;;;;;;-1.69;92.41;101232.27;1699593;83;20632;-81
2021/12/22 07:36:48;;;;;;;;;;;;;;;-1.86;92.82;101227.19;1691010;83;20243;-79
2021/12/22 07:39:14;;;;;;;;;;;;;;;-1.78;93.25;101236.46;1692596;83;21964;-77
2021/12/22 07:41:43;;;;;;;;;;;;;;;-1.74;92.69;101238.90;1698574;83;20191;-76
2021/12/22 07:44:09;;;;;;;;;;;;;;;-1.78;92.88;101246.81;1691390;83;20220;-76
2021/12/22 07:46:34;;;;;;;;;;;;;;;-1.54;92.93;101239.53;1700650;83;20180;-77
2021/12/22 07:49:00;;;;;;;;;;;;;;;-1.52;92.37;101244.20;1694278;83;20513;-78
2021/12/22 07:51:29;;;;;;;;;;;;;;;-1.51;92.17;101248.50;1696295;83;21140;-77
2021/12/22 07:53:58;;;;;;;;;;;;;;;-1.51;91.97;101248.50;1694824;83;20152;-79
2021/12/22 07:56:23;;;;;;;;;;;;;;;-1.37;91.55;101253.64;1700025;83;20611;-78
2021/12/22 07:58:49;;;;;;;;;;;;;;;-1.46;91.53;101250.48;1695002;83;20194;-77
2021/12/22 08:01:14;;;;;;;;;;;;;;;-1.50;91.90;101252.77;1694022;83;20166;-77
2021/12/22 08:03:40;;;;;;;;;;;;;;;-1.66;92.13;101261.95;1698987;83;21148;-78
2021/12/22 08:06:07;;;;;;;;;;;;;;;-1.59;92.52;101247.89;1695471;83;20532;-76
2021/12/22 08:08:36;;;;;;;;;;;;;;;-1.66;92.69;101258.07;1662850;83;20179;-77
2021/12/22 08:11:02;;;;;;;;;;;;;;;-1.54;92.37;101253.78;1711157;83;20692;-77
2021/12/22 08:13:29;;;;;;;;;;;;;;;-1.64;92.52;101252.38;1696759;83;20175;-77
2021/12/22 08:15:57;;;;;;;;;;;;;;;-1.68;93.34;101260.71;1692378;83;21185;-77
2021/12/22 08:18:25;;;;;;;;;;;;;;;-1.68;93.47;101258.55;1702080;83;20223;-77
2021/12/22 08:20:51;;;;;;;;;;;;;;;-1.63;93.52;101259.27;1691075;83;20194;-77
2021/12/22 08:23:19;;;;;;;;;;;;;;;-1.51;93.17;101252.81;1710578;83;20606;-77
2021/12/22 08:25:48;;;;;;;;;;;;;;;-1.60;93.51;101260.45;1700210;83;20204;-76
2021/12/22 08:28:16;;;;;;;;;;;;;;;-1.59;93.67;101260.84;1694816;83;22030;-77
2021/12/22 08:30:42;;;;;;;;;;;;;;;-1.62;93.54;101260.94;1708042;83;20199;-78
2021/12/22 08:33:19;;;;;;;;;;;;;;;-1.46;92.91;101259.55;1672384;83;20238;-78
2021/12/22 08:38:50;;;;;;;;;;;;;;;-1.55;93.65;101256.42;1681670;83;20162;-77
2021/12/22 08:40:54;;;;;;;;;;;;;;;-1.64;94.03;101267.92;1688861;83;20152;-78
2021/12/22 08:43:21;;;;;;;;;;;;;;;-1.68;94.05;101254.66;1698882;83;20175;-76
2021/12/22 08:45:47;;;;;;;;;;;;;;;-1.58;93.98;101270.77;1693933;83;20525;-78
2021/12/22 08:48:12;;;;;;;;;;;;;;;-1.67;94.14;101279.22;1653694;83;20214;-78
2021/12/22 08:50:40;;;;;;;;;;;;;;;-1.54;94.14;101273.21;1689100;83;20446;-78
2021/12/22 08:53:07;;;;;;;;;;;;;;;-1.60;94.05;101264.34;1666550;83;22705;-80
2021/12/22 08:55:34;;;;;;;;;;;;;;;-1.59;94.41;101256.95;1698349;83;20120;-77
2021/12/22 08:57:59;;;;;;;;;;;;;;;-1.78;94.63;101262.35;1666187;83;20167;-80
2021/12/22 09:00:25;;;;;;;;;;;;;;;-1.76;95.19;101259.26;1684738;83;21318;-77
2021/12/22 09:02:52;;;;;;;;;;;;;;;-1.75;94.99;101267.44;1687406;83;20132;-79
2021/12/22 09:05:19;;;;;;;;;;;;;;;-1.69;94.98;101262.05;1693626;83;22046;-79
2021/12/22 09:07:46;;;;;;;;;;;;;;;-1.77;95.33;101271.79;1696920;83;20203;-79
2021/12/22 09:10:11;;;;;;;;;;;;;;;-1.81;94.99;101261.53;1691517;83;20144;-79
2021/12/22 09:12:39;;;;;;;;;;;;;;;-1.94;95.10;101260.25;1697653;83;20713;-82
2021/12/22 09:15:07;;;;;;;;;;;;;;;-2.25;96.92;101253.44;1694032;83;20171;-77
2021/12/22 09:17:33;;;;;;;;;;;;;;;-2.06;96.90;101259.34;1691351;83;21135;-81
2021/12/22 09:19:58;;;;;;;;;;;;;;;-2.03;96.34;101263.13;1658529;83;20193;-77
2021/12/22 09:22:26;;;;;;;;;;;;;;;-2.04;96.15;101262.72;1694464;83;20219;-79
2021/12/22 09:24:54;;;;;;;;;;;;;;;-2.02;95.28;101266.09;1696104;83;20686;-78
2021/12/22 09:27:21;;;;;;;;;;;;;;;-2.23;95.11;101278.80;1688374;83;20230;-77
2021/12/22 09:29:47;;;;;;;;;;;;;;;-2.34;95.66;101282.17;1702613;83;20164;-78
2021/12/22 09:32:15;;;;;;;;;;;;;;;-2.29;95.58;101280.73;1694897;83;20335;-78
2021/12/22 09:34:40;;;;;;;;;;;;;;;-2.18;95.44;101283.84;1687910;83;20163;-77
2021/12/22 09:37:07;;;;;;;;;;;;;;;-2.32;95.60;101277.78;1692716;83;20186;-77
2021/12/22 09:39:33;;;;;;;;;;;;;;;-2.29;95.86;101277.70;1690316;83;20172;-76
2021/12/22 09:41:58;;;;;;;;;;;;;;;-2.10;95.46;101279.73;1698672;83;21168;-77
2021/12/22 09:44:30;;;;;;;;;;;;;;;-1.81;93.98;101287.88;1690166;83;20175;-77
2021/12/22 09:46:53;;;;;;;;;;;;;;;-1.73;93.26;101291.52;1694424;83;20187;-78
2021/12/22 09:49:34;;;;;;;;;;;;;;;-1.83;93.10;101293.11;1690631;83;20176;-78
2021/12/22 09:54:30;;;;;;;;;;;;;;;-1.65;92.77;101292.98;1690916;83;20158;-79
2021/12/22 09:56:56;;;;;;;;;;;;;;;-1.52;91.88;101301.66;1690879;83;20543;-80
2021/12/22 09:59:22;;;;;;;;;;;;;;;-1.41;90.94;101294.79;1695153;83;20136;-78
2021/12/22 10:01:47;;;;;;;;;;;;;;;-1.45;90.91;101301.37;1694644;83;20802;-79
2021/12/22 10:04:16;;;;;;;;;;;;;;;-1.53;91.38;101300.78;1689644;83;20529;-78
2021/12/22 10:06:40;;;;;;;;;;;;;;;-1.47;91.31;101295.41;1689178;83;20329;-78
2021/12/22 10:09:06;;;;;;;;;;;;;;;-1.41;90.55;101289.61;1702423;83;20195;-80
2021/12/22 10:11:33;;;;;;;;;;;;;;;-1.35;90.62;101284.22;1698934;83;20230;-80
2021/12/22 10:13:59;;;;;;;;;;;;;;;-1.41;90.23;101284.43;1698311;83;20175;-80
2021/12/22 10:16:26;;;;;;;;;;;;;;;-1.37;90.11;101286.86;1687774;83;20167;-79
2021/12/22 10:19:07;;;;;;;;;;;;;;;-1.29;89.96;101278.83;1687867;83;21966;-78
2021/12/22 10:21:34;;;;;;;;;;;;;;;-1.13;89.72;101286.49;1694398;83;20505;-76
2021/12/22 10:24:02;;;;;;;;;;;;;;;-1.23;89.54;101285.11;1669163;83;32850;-77
2021/12/22 10:26:28;;;;;;;;;;;;;;;-1.12;88.88;101279.12;1690312;83;20207;-77
2021/12/22 10:29:04;;;;;;;;;;;;;;;-1.18;88.50;101278.04;1687805;83;20209;-76
2021/12/22 10:31:36;;;;;;;;;;;;;;;-1.25;88.98;101269.23;1691042;83;21473;-80
2021/12/22 10:34:04;;;;;;;;;;;;;;;-1.08;89.28;101268.19;1705126;83;20170;-79
2021/12/22 10:36:30;;;;;;;;;;;;;;;-1.10;88.72;101264.81;1698007;83;20187;-79
2021/12/22 10:39:00;;;;;;;;;;;;;;;-0.97;87.95;101257.44;1677038;83;20195;-80
2021/12/22 10:41:30;;;;;;;;;;;;;;;-1.07;88.47;101254.77;1699411;83;20188;-79
2021/12/22 10:43:55;;;;;;;;;;;;;;;-1.10;88.00;101256.58;1697860;83;21140;-78
2021/12/22 10:46:31;;;;;;;;;;;;;;;-1.02;88.32;101272.33;1698076;83;20142;-77
2021/12/22 10:49:15;;;;;;;;;;;;;;;-1.00;89.28;101273.11;1701166;83;20198;-79
2021/12/22 10:51:43;;;;;;;;;;;;;;;-1.02;89.15;101271.03;1696289;83;20153;-80
2021/12/22 10:54:10;;;;;;;;;;;;;;;-1.24;89.40;101274.36;1698077;83;20222;-81
2021/12/22 10:56:37;;;;;;;;;;;;;;;-1.42;90.03;101264.16;1699203;83;21872;-78
2021/12/22 10:59:17;;;;;;;;;;;;;;;-1.37;89.91;101271.78;1703672;83;21059;-76
2021/12/22 11:01:54;;;;;;;;;;;;;;;-1.51;90.10;101267.06;1703007;82;20599;-77
2021/12/22 11:04:30;;;;;;;;;;;;;;;-1.54;90.67;101260.26;1697873;83;20214;-79
2021/12/22 11:06:58;;;;;;;;;;;;;;;-1.55;90.82;101268.91;1699038;83;20494;-78
2021/12/22 11:09:24;;;;;;;;;;;;;;;-1.56;90.70;101267.67;1700118;82;21282;-78
2021/12/22 11:11:52;;;;;;;;;;;;;;;-1.46;90.33;101263.43;1697617;83;20918;-77
2021/12/22 11:14:30;;;;;;;;;;;;;;;-1.58;90.08;101265.13;1702749;83;20139;-77
2021/12/22 11:17:01;;;;;;;;;;;;;;;-1.60;90.34;101270.82;1704304;82;20148;-76
2021/12/22 11:19:33;;;;;;;;;;;;;;;-1.55;90.30;101274.09;1700304;83;20195;-80
2021/12/22 11:22:11;;;;;;;;;;;;;;;-1.33;89.35;101268.20;1697637;83;22189;-78
2021/12/22 11:24:50;;;;;;;;;;;;;;;-1.52;89.70;101268.81;1699402;83;20461;-78
2021/12/22 11:27:21;;;;;;;;;;;;;;;-1.43;89.77;101259.03;1697665;83;20194;-78
2021/12/22 11:29:48;;;;;;;;;;;;;;;-1.59;89.96;101266.02;1699993;83;20227;-78
2021/12/22 11:32:15;;;;;;;;;;;;;;;-1.71;90.17;101279.36;1700794;83;20226;-77
2021/12/22 11:34:42;;;;;;;;;;;;;;;-1.88;90.72;101276.88;1686650;83;21096;-76
2021/12/22 11:37:10;;;;;;;;;;;;;;;-1.92;91.28;101281.75;1684902;83;20745;-78
2021/12/22 11:39:37;;;;;;;;;;;;;;;-1.78;91.14;101281.31;1689794;83;20533;-78
2021/12/22 11:42:10;;;;;;;;;;;;;;;-1.55;90.75;101274.09;1693641;82;20207;-78
2021/12/22 11:44:38;;;;;;;;;;;;;;;-1.47;89.61;101273.84;1696531;83;20435;-79
2021/12/22 11:47:05;;;;;;;;;;;;;;;-1.62;89.94;101280.36;1683482;83;21211;-77
2021/12/22 11:49:34;;;;;;;;;;;;;;;-1.49;89.84;101267.84;1686090;83;20159;-77
2021/12/22 11:51:59;;;;;;;;;;;;;;;-1.38;89.61;101271.37;1696659;83;20184;-77
2021/12/22 11:54:27;;;;;;;;;;;;;;;-1.54;89.90;101265.44;1690593;82;21055;-78
2021/12/22 11:56:53;;;;;;;;;;;;;;;-1.61;89.45;101273.00;1701011;82;21270;-78
2021/12/22 11:59:34;;;;;;;;;;;;;;;-1.56;89.81;101259.90;1689248;82;21996;-77
2021/12/22 12:02:21;;;;;;;;;;;;;;;-1.60;90.16;101269.52;1685127;82;20158;-78
2021/12/22 12:04:49;;;;;;;;;;;;;;;-1.30;88.67;101268.09;1686466;83;20216;-79
2021/12/22 12:07:49;;;;;;;;;;;;;;;-1.49;89.47;101277.78;1696847;83;20651;-78
2021/12/22 12:10:40;;;;;;;;;;;;;;;-1.66;90.09;101274.91;1684831;83;20215;-79
2021/12/22 12:13:36;;;;;;;;;;;;;;;-1.82;90.47;101274.10;1692672;83;21084;-77
2021/12/22 12:22:08;;;;;;;;;;;;;;;-1.78;90.78;101278.73;1694030;83;20505;-80
2021/12/22 12:24:38;;;;;;;;;;;;;;;-1.65;90.56;101280.03;1687593;83;20223;-79
2021/12/22 12:27:33;;;;;;;;;;;;;;;-1.55;90.49;101264.20;1690098;83;21185;-80
2021/12/22 12:30:02;;;;;;;;;;;;;;;-1.57;90.33;101266.84;1685526;83;20194;-79
2021/12/22 12:32:44;;;;;;;;;;;;;;;-1.73;90.64;101273.40;1687818;83;20605;-78
2021/12/22 12:35:23;;;;;;;;;;;;;;;-1.63;90.21;101273.51;1690036;83;20128;-77
2021/12/22 12:38:17;;;;;;;;;;;;;;;-1.74;91.02;101269.11;1685965;83;20249;-77
2021/12/22 12:41:02;;;;;;;;;;;;;;;-1.66;90.82;101261.95;1687013;83;21144;-81
2021/12/22 12:43:51;;;;;;;;;;;;;;;-1.76;91.03;101270.91;1684544;83;20252;-79
2021/12/22 12:46:35;;;;;;;;;;;;;;;-1.75;90.97;101271.31;1685884;83;20121;-78
2021/12/22 12:49:08;;;;;;;;;;;;;;;-1.77;90.43;101275.67;1680019;83;20234;-79
2021/12/22 12:51:49;;;;;;;;;;;;;;;-1.93;91.38;101273.58;1683122;83;20156;-78
2021/12/22 12:54:25;;;;;;;;;;;;;;;-1.77;91.49;101274.38;1678911;83;20229;-80
2021/12/22 12:56:59;;;;;;;;;;;;;;;-1.76;90.80;101277.37;1674769;83;20187;-80
2021/12/22 12:59:41;;;;;;;;;;;;;;;-1.71;90.52;101275.48;1680593;83;20930;-79
2021/12/22 13:02:23;;;;;;;;;;;;;;;-1.58;90.11;101275.49;1681208;83;20193;-77